createdAt,value
2019-04-30T00:01:36.151Z,39.599998
2019-04-30T00:03:35.222Z,39.299999
2019-04-30T00:05:35.244Z,39.400002
2019-04-30T00:06:35.363Z,39.400002
2019-04-30T00:07:35.696Z,41
2019-04-30T00:08:35.338Z,41
2019-04-30T00:09:35.136Z,39.5
2019-04-30T00:10:36.696Z,39.200001
2019-04-30T00:11:33.617Z,38.5
2019-04-30T00:12:35.820Z,39.200001
2019-04-30T00:13:35.715Z,38.700001
2019-04-30T00:14:38.472Z,39
2019-04-30T00:15:35.677Z,38.900002
2019-04-30T00:16:36.127Z,40
2019-04-30T00:17:35.842Z,39.900002
2019-04-30T00:19:35.894Z,38.5
2019-04-30T00:21:36.093Z,39.099998
2019-04-30T00:22:38.482Z,38.700001
2019-04-30T00:23:35.930Z,38.099998
2019-04-30T00:24:35.447Z,38.299999
2019-04-30T00:25:35.349Z,38.400002
2019-04-30T00:26:35.402Z,37.400002
2019-04-30T00:27:35.644Z,36.700001
2019-04-30T00:29:35.685Z,37.599998
2019-04-30T00:30:35.010Z,38.099998
2019-04-30T00:31:35.659Z,36.900002
2019-04-30T00:32:37.122Z,36.900002
2019-04-30T00:33:35.819Z,37.599998
2019-04-30T00:34:39.230Z,36
2019-04-30T00:35:35.940Z,37.5
2019-04-30T00:36:37.378Z,37.099998
2019-04-30T00:37:35.289Z,37
2019-04-30T00:38:37.796Z,38
2019-04-30T00:39:35.505Z,36.599998
2019-04-30T00:40:35.298Z,37.299999
2019-04-30T00:41:35.431Z,38
2019-04-30T00:42:35.732Z,38
2019-04-30T00:43:37.634Z,37.599998
2019-04-30T00:44:35.689Z,38.299999
2019-04-30T00:45:35.593Z,37.900002
2019-04-30T00:46:36.667Z,38
2019-04-30T00:47:39.378Z,38.599998
2019-04-30T00:48:36.760Z,37.900002
2019-04-30T00:49:35.885Z,37.799999
2019-04-30T00:50:37.165Z,37.099998
2019-04-30T00:51:36.019Z,37.299999
2019-04-30T00:52:37.325Z,38.799999
2019-04-30T00:53:36.126Z,38.400002
2019-04-30T00:54:36.203Z,39.299999
2019-04-30T00:55:38.056Z,38.700001
2019-04-30T00:56:37.353Z,38.400002
2019-04-30T00:57:37.203Z,40.099998
2019-04-30T00:58:37.453Z,38.299999
2019-04-30T00:59:39.678Z,38.700001
2019-04-30T01:00:37.145Z,39.5
2019-04-30T01:01:37.315Z,38.900002
2019-04-30T01:02:37.729Z,40.799999
2019-04-30T01:03:39.368Z,38.400002
2019-04-30T01:04:36.887Z,38.900002
2019-04-30T01:05:39.495Z,39.799999
2019-04-30T01:06:37.057Z,40.599998
2019-04-30T01:07:39.542Z,39.200001
2019-04-30T01:08:37.200Z,38.299999
2019-04-30T01:09:39.536Z,39
2019-04-30T01:10:37.397Z,40.400002
2019-04-30T01:11:39.676Z,40.299999
2019-04-30T01:12:43.837Z,39.200001
2019-04-30T01:13:38.872Z,38.099998
2019-04-30T01:14:38.592Z,39.299999
2019-04-30T01:15:39.041Z,38.599998
2019-04-30T01:16:39.430Z,39.900002
2019-04-30T01:17:38.197Z,38.299999
2019-04-30T01:18:39.034Z,38.900002
2019-04-30T01:19:39.509Z,40.299999
2019-04-30T01:20:38.571Z,39.5
2019-04-30T01:21:40.083Z,40.5
2019-04-30T01:22:39.136Z,39.900002
2019-04-30T01:23:41.612Z,39.5
2019-04-30T01:24:39.175Z,40.599998
2019-04-30T01:25:38.847Z,40.5
2019-04-30T01:26:39.394Z,39.5
2019-04-30T01:27:39.320Z,39.5
2019-04-30T01:28:39.508Z,39.799999
2019-04-30T01:29:43.990Z,39.599998
2019-04-30T01:30:39.358Z,41.799999
2019-04-30T01:31:40.755Z,41.200001
2019-04-30T01:32:39.470Z,40.700001
2019-04-30T01:33:39.051Z,40.5
2019-04-30T01:34:39.503Z,41.400002
2019-04-30T01:35:40.572Z,40.700001
2019-04-30T01:36:39.308Z,41.299999
2019-04-30T01:37:39.028Z,41.400002
2019-04-30T01:38:40.290Z,42
2019-04-30T01:39:39.241Z,40.700001
2019-04-30T01:40:42.738Z,39.599998
2019-04-30T01:41:40.204Z,42
2019-04-30T01:42:41.053Z,42.400002
2019-04-30T01:43:39.450Z,40.799999
2019-04-30T01:44:43.386Z,41.299999
2019-04-30T01:45:39.668Z,39.900002
2019-04-30T01:46:43.168Z,40.200001
2019-04-30T01:47:40.864Z,40.900002
2019-04-30T01:49:42.565Z,40.099998
2019-04-30T01:51:40.096Z,40.799999
2019-04-30T01:52:41.142Z,40.700001
2019-04-30T01:53:43.568Z,39.5
2019-04-30T01:54:41.290Z,40.400002
2019-04-30T01:55:41.443Z,39.400002
2019-04-30T01:56:40.510Z,38.5
2019-04-30T01:57:40.618Z,38.099998
2019-04-30T01:58:40.675Z,37.700001
2019-04-30T01:59:40.755Z,39.599998
2019-04-30T02:00:40.830Z,38.400002
2019-04-30T02:01:40.960Z,38.200001
2019-04-30T02:02:41.031Z,37
2019-04-30T02:03:41.096Z,38.099998
2019-04-30T02:04:41.166Z,38.900002
2019-04-30T02:05:41.220Z,38.099998
2019-04-30T02:06:41.370Z,37.900002
2019-04-30T02:07:41.422Z,38.099998
2019-04-30T02:10:41.581Z,35.900002
2019-04-30T02:11:41.659Z,36.599998
2019-04-30T02:12:41.749Z,36.200001
2019-04-30T02:13:41.807Z,36.5
2019-04-30T02:14:41.865Z,35.799999
2019-04-30T02:15:41.946Z,36.200001
2019-04-30T02:16:42.022Z,36.599998
2019-04-30T02:17:42.100Z,35.200001
2019-04-30T02:18:42.169Z,36.5
2019-04-30T02:19:53.608Z,36.900002
2019-04-30T02:20:42.272Z,37.299999
2019-04-30T02:21:42.328Z,35.299999
2019-04-30T02:22:42.419Z,36.299999
2019-04-30T02:23:42.480Z,35.200001
2019-04-30T02:24:42.539Z,36
2019-04-30T02:25:42.589Z,35.900002
2019-04-30T02:26:42.647Z,35.799999
2019-04-30T02:27:42.746Z,36.200001
2019-04-30T02:28:42.824Z,36.200001
2019-04-30T02:29:42.881Z,36.599998
2019-04-30T02:30:42.943Z,37.099998
2019-04-30T02:31:43.004Z,36.200001
2019-04-30T02:32:43.100Z,36.700001
2019-04-30T02:33:43.158Z,36.799999
2019-04-30T02:34:44.291Z,36.599998
2019-04-30T02:35:43.258Z,36.200001
2019-04-30T02:36:43.310Z,35.400002
2019-04-30T02:37:43.627Z,36.900002
2019-04-30T02:38:43.545Z,36.299999
2019-04-30T02:39:43.620Z,35.5
2019-04-30T02:40:43.687Z,35.700001
2019-04-30T02:41:43.771Z,37
2019-04-30T02:42:43.997Z,36.400002
2019-04-30T02:43:43.955Z,36.400002
2019-04-30T02:44:44.019Z,36.900002
2019-04-30T02:45:44.117Z,37.099998
2019-04-30T02:46:44.213Z,37.200001
2019-04-30T02:47:44.281Z,35.599998
2019-04-30T02:48:44.381Z,35.900002
2019-04-30T02:49:44.470Z,36.200001
2019-04-30T02:50:44.541Z,36.299999
2019-04-30T02:51:44.729Z,35.700001
2019-04-30T02:52:44.673Z,36.5
2019-04-30T02:53:44.874Z,35.700001
2019-04-30T02:54:44.804Z,36.200001
2019-04-30T02:55:45.849Z,36
2019-04-30T02:56:44.952Z,37
2019-04-30T02:57:45.019Z,37.099998
2019-04-30T02:58:45.188Z,35.799999
2019-04-30T02:59:45.282Z,36.099998
2019-04-30T03:00:45.366Z,37
2019-04-30T03:01:46.415Z,36.900002
2019-04-30T03:02:46.467Z,37.200001
2019-04-30T03:03:46.534Z,37
2019-04-30T03:05:49.542Z,38.299999
2019-04-30T03:07:46.759Z,36.700001
2019-04-30T03:09:49.788Z,37.400002
2019-04-30T03:10:45.987Z,37.5
2019-04-30T03:11:49.523Z,37.900002
2019-04-30T03:12:49.692Z,37.299999
2019-04-30T03:14:49.737Z,38.5
2019-04-30T03:17:50.338Z,37.900002
2019-04-30T03:18:46.655Z,38.5
2019-04-30T03:19:46.790Z,38
2019-04-30T03:20:49.696Z,37.700001
2019-04-30T03:21:46.922Z,38.200001
2019-04-30T03:22:51.080Z,37.900002
2019-04-30T03:23:50.136Z,38.799999
2019-04-30T03:24:49.813Z,38.299999
2019-04-30T03:25:50.096Z,39
2019-04-30T03:26:49.648Z,38.200001
2019-04-30T03:27:49.681Z,38.700001
2019-04-30T03:28:49.289Z,39.599998
2019-04-30T03:29:49.997Z,38.5
2019-04-30T03:30:51.831Z,40.599998
2019-04-30T03:31:52.186Z,38.599998
2019-04-30T03:32:55.198Z,39.700001
2019-04-30T03:33:52.210Z,38.900002
2019-04-30T03:34:51.482Z,40.5
2019-04-30T03:35:53.885Z,39.400002
2019-04-30T03:36:50.321Z,39.5
2019-04-30T03:45:49.892Z,40.400002
2019-04-30T03:46:49.757Z,41.5
2019-04-30T03:47:50.397Z,38.900002
2019-04-30T03:48:50.317Z,40.099998
2019-04-30T03:49:49.832Z,39.5
2019-04-30T03:50:55.596Z,39.400002
2019-04-30T03:51:49.829Z,39.5
2019-04-30T03:52:50.301Z,39.5
2019-04-30T03:53:50.070Z,39.799999
2019-04-30T03:54:49.504Z,41.5
2019-04-30T03:55:50.505Z,39.200001
2019-04-30T03:56:50.110Z,40.099998
2019-04-30T03:57:51.851Z,40.299999
2019-04-30T03:58:50.287Z,40
2019-04-30T03:59:50.001Z,40.299999
2019-04-30T04:00:50.180Z,38.799999
2019-04-30T04:01:49.790Z,38.900002
2019-04-30T04:02:50.071Z,39.299999
2019-04-30T04:03:49.926Z,39.700001
2019-04-30T04:04:52.512Z,38.799999
2019-04-30T04:05:49.903Z,38
2019-04-30T04:06:49.923Z,38
2019-04-30T04:07:52.957Z,37.900002
2019-04-30T04:08:50.031Z,39.099998
2019-04-30T04:09:50.216Z,38.5
2019-04-30T04:10:52.909Z,38.599998
2019-04-30T04:11:50.943Z,40.299999
2019-04-30T04:12:50.476Z,39.200001
2019-04-30T04:13:50.606Z,38.599998
2019-04-30T04:14:51.198Z,39.099998
2019-04-30T04:15:50.784Z,38.900002
2019-04-30T04:16:51.167Z,39
2019-04-30T04:17:50.914Z,39
2019-04-30T04:18:51.085Z,37.299999
2019-04-30T04:19:51.079Z,38
2019-04-30T04:21:06.611Z,38.5
2019-04-30T04:21:52.259Z,38.799999
2019-04-30T04:22:51.278Z,39
2019-04-30T04:23:51.282Z,39.099998
2019-04-30T04:24:51.316Z,38.5
2019-04-30T04:25:51.382Z,38.900002
2019-04-30T04:26:51.400Z,39.099998
2019-04-30T04:27:51.421Z,38.099998
2019-04-30T04:28:51.434Z,39.700001
2019-04-30T04:29:51.510Z,38.799999
2019-04-30T04:30:51.503Z,39.700001
2019-04-30T04:31:51.488Z,38.400002
2019-04-30T04:32:51.515Z,38.400002
2019-04-30T04:33:52.647Z,38.099998
2019-04-30T04:34:51.480Z,38.799999
2019-04-30T04:35:51.719Z,39.5
2019-04-30T04:36:51.704Z,40.799999
2019-04-30T04:37:51.865Z,39.900002
2019-04-30T04:38:51.858Z,39.599998
2019-04-30T04:39:52.018Z,39
2019-04-30T04:40:52.043Z,39.299999
2019-04-30T04:41:52.131Z,41
2019-04-30T04:42:52.126Z,39.599998
2019-04-30T04:43:52.115Z,39
2019-04-30T04:48:52.343Z,40.599998
2019-04-30T04:49:53.812Z,40
2019-04-30T04:50:52.331Z,39.400002
2019-04-30T04:51:52.377Z,40.299999
2019-04-30T04:52:52.374Z,40
2019-04-30T04:53:52.373Z,40.200001
2019-04-30T04:54:52.377Z,40.900002
2019-04-30T04:55:52.390Z,39.799999
2019-04-30T04:56:53.390Z,40.599998
2019-04-30T04:57:53.425Z,39
2019-04-30T04:58:52.420Z,39.299999
2019-04-30T04:59:52.427Z,40.799999
2019-04-30T05:00:52.437Z,41.400002
2019-04-30T05:01:52.524Z,38.799999
2019-04-30T05:02:52.539Z,39.5
2019-04-30T05:03:52.539Z,37.400002
2019-04-30T05:04:52.567Z,39
2019-04-30T05:05:52.582Z,40
2019-04-30T05:06:52.608Z,38
2019-04-30T05:07:52.637Z,38.400002
2019-04-30T05:08:52.734Z,38.799999
2019-04-30T05:09:52.740Z,39.5
2019-04-30T05:10:52.741Z,37.700001
2019-04-30T05:11:52.865Z,38
2019-04-30T05:12:52.914Z,38.299999
2019-04-30T05:13:52.912Z,38.700001
2019-04-30T05:14:52.910Z,38.299999
2019-04-30T05:15:52.925Z,37.799999
2019-04-30T05:16:52.931Z,37.400002
2019-04-30T05:17:53.004Z,39
2019-04-30T05:18:53.026Z,38.099998
2019-04-30T05:19:53.047Z,38.400002
2019-04-30T05:20:53.104Z,39.099998
2019-04-30T05:21:53.118Z,38.299999
2019-04-30T05:22:53.265Z,37.5
2019-04-30T05:23:53.280Z,37.700001
2019-04-30T05:24:53.294Z,38.099998
2019-04-30T05:25:53.310Z,38.599998
2019-04-30T05:26:53.298Z,37.799999
2019-04-30T05:27:53.542Z,38.700001
2019-04-30T05:28:53.530Z,38.5
2019-04-30T05:29:53.705Z,38.5
2019-04-30T05:30:53.705Z,39
2019-04-30T05:31:53.724Z,37.900002
2019-04-30T05:32:53.799Z,38
2019-04-30T05:33:53.819Z,37.299999
2019-04-30T05:34:54.817Z,36.900002
2019-04-30T05:35:53.831Z,38.400002
2019-04-30T05:36:53.836Z,37.400002
2019-04-30T05:37:53.875Z,36.599998
2019-04-30T05:38:53.874Z,37.400002
2019-04-30T05:39:53.862Z,37.599998
2019-04-30T05:40:53.859Z,36.799999
2019-04-30T05:41:53.874Z,36.400002
2019-04-30T05:42:53.906Z,37.099998
2019-04-30T05:43:53.921Z,36.099998
2019-04-30T05:44:53.963Z,36.5
2019-04-30T05:45:53.979Z,36.900002
2019-04-30T05:46:53.990Z,36.799999
2019-04-30T05:47:54.035Z,36.400002
2019-04-30T05:48:54.071Z,36.200001
2019-04-30T05:49:54.067Z,35.5
2019-04-30T05:50:56.180Z,35.700001
2019-04-30T05:51:55.861Z,35.299999
2019-04-30T05:52:54.321Z,36
2019-04-30T05:53:54.347Z,34.900002
2019-04-30T05:54:54.366Z,35.799999
2019-04-30T05:55:54.353Z,34.799999
2019-04-30T05:56:54.395Z,34.299999
2019-04-30T05:57:56.457Z,34.599998
2019-04-30T05:58:54.591Z,34
2019-04-30T05:59:54.642Z,33.599998
2019-04-30T06:00:55.714Z,34
2019-04-30T06:01:55.675Z,33.799999
2019-04-30T06:05:56.121Z,33.900002
2019-04-30T06:07:56.109Z,32.400002
2019-04-30T06:09:04.562Z,33.200001
2019-04-30T06:09:56.324Z,33.799999
2019-04-30T06:11:56.504Z,33.200001
2019-04-30T06:13:58.722Z,31.200001
2019-04-30T06:14:55.545Z,31.799999
2019-04-30T06:15:56.581Z,32.400002
2019-04-30T06:16:55.577Z,31.9
2019-04-30T06:18:02.779Z,31.299999
2019-04-30T06:18:55.754Z,32.700001
2019-04-30T06:19:55.768Z,31.5
2019-04-30T06:20:56.813Z,31.4
2019-04-30T06:22:04.895Z,31.799999
2019-04-30T06:22:56.970Z,31.799999
2019-04-30T06:24:57.003Z,30.9
2019-04-30T06:26:58.877Z,30.4
2019-04-30T06:27:56.156Z,30
2019-04-30T06:28:56.196Z,30
2019-04-30T06:29:56.223Z,29
2019-04-30T06:30:56.239Z,30.5
2019-04-30T06:31:56.286Z,29.5
2019-04-30T06:32:56.285Z,30.5
2019-04-30T06:33:58.603Z,29.299999
2019-04-30T06:34:56.291Z,29.799999
2019-04-30T06:35:56.352Z,29.6
2019-04-30T06:36:57.088Z,28.700001
2019-04-30T06:37:58.921Z,28.4
2019-04-30T06:38:58.848Z,29.1
2019-04-30T06:39:56.763Z,27.799999
2019-04-30T06:40:58.732Z,27.6
2019-04-30T06:42:04.837Z,27.5
2019-04-30T06:43:00.290Z,28.299999
2019-04-30T06:43:58.679Z,29.1
2019-04-30T06:44:59.033Z,27.799999
2019-04-30T06:45:58.938Z,27.6
2019-04-30T06:46:58.781Z,27.799999
2019-04-30T06:47:58.763Z,28.4
2019-04-30T06:48:59.383Z,27.799999
2019-04-30T06:49:58.721Z,27.1
2019-04-30T06:50:59.199Z,28.1
2019-04-30T06:51:58.840Z,27.6
2019-04-30T06:52:59.338Z,27.1
2019-04-30T06:53:58.771Z,26.6
2019-04-30T06:54:59.634Z,26.9
2019-04-30T06:55:58.962Z,27.700001
2019-04-30T06:56:59.619Z,26.299999
2019-04-30T06:58:11.051Z,27.5
2019-04-30T06:58:58.998Z,26.1
2019-04-30T06:59:59.575Z,27.700001
2019-04-30T07:00:59.548Z,26.5
2019-04-30T07:01:58.975Z,26.799999
2019-04-30T07:02:59.084Z,27.700001
2019-04-30T07:04:00.611Z,27
2019-04-30T07:04:58.799Z,27.5
2019-04-30T07:05:58.738Z,26.799999
2019-04-30T07:06:59.051Z,27.200001
2019-04-30T07:08:00.726Z,28
2019-04-30T07:08:59.735Z,27.9
2019-04-30T07:10:00.961Z,26.5
2019-04-30T07:11:00.371Z,27.200001
2019-04-30T07:12:00.199Z,28.1
2019-04-30T07:12:59.177Z,28.6
2019-04-30T07:13:59.957Z,28.200001
2019-04-30T07:14:59.307Z,28.299999
2019-04-30T07:15:59.298Z,28.1
2019-04-30T07:16:59.512Z,29.1
2019-04-30T07:17:59.350Z,28.299999
2019-04-30T07:18:59.365Z,29.5
2019-04-30T07:19:59.752Z,29.200001
2019-04-30T07:20:59.406Z,28.799999
2019-04-30T07:21:59.498Z,29
2019-04-30T07:23:02.889Z,28.799999
2019-04-30T07:24:00.538Z,28.700001
2019-04-30T07:24:59.726Z,27.9
2019-04-30T07:25:59.567Z,28.5
2019-04-30T07:27:02.625Z,27.700001
2019-04-30T07:28:00.748Z,27.299999
2019-04-30T07:29:02.485Z,27.700001
2019-04-30T07:29:59.915Z,28.4
2019-04-30T07:31:08.477Z,28.200001
2019-04-30T07:32:00.945Z,28.1
2019-04-30T07:32:59.953Z,28.1
2019-04-30T07:33:59.943Z,27.9
2019-04-30T07:34:59.972Z,28.700001
2019-04-30T07:36:01.762Z,27.700001
2019-04-30T07:37:11.705Z,28
2019-04-30T07:38:04.775Z,28.200001
2019-04-30T07:39:01.156Z,28.1
2019-04-30T07:45:00.853Z,27.4
2019-04-30T07:46:00.582Z,26.799999
2019-04-30T07:47:02.014Z,27.5
2019-04-30T07:48:00.653Z,27
2019-04-30T07:49:00.659Z,26.700001
2019-04-30T07:50:00.957Z,27.1
2019-04-30T07:51:00.717Z,26.9
2019-04-30T07:52:01.793Z,28.799999
2019-04-30T07:53:05.463Z,27.799999
2019-04-30T07:54:01.892Z,27.1
2019-04-30T07:55:00.927Z,26.5
2019-04-30T07:56:02.143Z,26.200001
2019-04-30T07:57:01.131Z,25.799999
2019-04-30T07:58:01.258Z,26
2019-04-30T07:59:02.821Z,26.5
2019-04-30T08:00:01.321Z,26.200001
2019-04-30T08:01:01.409Z,26
2019-04-30T08:02:09.907Z,26.5
2019-04-30T08:03:02.572Z,27.5
2019-04-30T08:04:01.624Z,26.799999
2019-04-30T08:05:01.770Z,26.9
2019-04-30T08:06:01.867Z,27.200001
2019-04-30T08:07:01.906Z,27.299999
2019-04-30T08:08:16.096Z,27.1
2019-04-30T08:09:03.051Z,26.299999
2019-04-30T08:14:03.393Z,25.799999
2019-04-30T08:16:02.501Z,26.799999
2019-04-30T08:17:02.579Z,26.4
2019-04-30T08:18:05.796Z,26
2019-04-30T08:19:02.683Z,26.200001
2019-04-30T08:20:02.695Z,26.4
2019-04-30T08:21:02.696Z,27.1
2019-04-30T08:22:02.838Z,26.9
2019-04-30T08:23:13.158Z,26.9
2019-04-30T08:24:02.931Z,25.5
2019-04-30T08:25:02.945Z,25.200001
2019-04-30T08:26:02.953Z,25.6
2019-04-30T08:27:02.965Z,25.9
2019-04-30T08:28:03.011Z,26.700001
2019-04-30T08:29:02.989Z,26.700001
2019-04-30T08:30:03.115Z,26.6
2019-04-30T08:31:04.269Z,26.299999
2019-04-30T08:32:03.273Z,26.5
2019-04-30T08:33:03.322Z,25.799999
2019-04-30T08:34:03.365Z,26.6
2019-04-30T08:35:03.457Z,27.5
2019-04-30T08:36:03.633Z,27.6
2019-04-30T08:37:13.527Z,27.6
2019-04-30T08:38:04.780Z,26.700001
2019-04-30T08:39:03.770Z,26.5
2019-04-30T08:40:03.777Z,26.9
2019-04-30T08:41:03.740Z,26.200001
2019-04-30T08:42:03.933Z,26.1
2019-04-30T08:43:04.035Z,27.9
2019-04-30T08:44:03.987Z,26
2019-04-30T08:45:04.170Z,26.1
2019-04-30T08:46:04.143Z,27.299999
2019-04-30T08:47:04.330Z,26.4
2019-04-30T08:48:04.343Z,28.4
2019-04-30T08:49:04.616Z,28.5
2019-04-30T08:50:04.682Z,27.799999
2019-04-30T08:51:04.590Z,27.9
2019-04-30T08:52:05.614Z,27.6
2019-04-30T08:53:04.634Z,28.299999
2019-04-30T08:54:04.672Z,29.1
2019-04-30T08:55:13.209Z,29.799999
2019-04-30T08:56:05.676Z,28.299999
2019-04-30T08:57:04.699Z,29.6
2019-04-30T08:58:09.742Z,29.700001
2019-04-30T08:59:05.951Z,28.700001
2019-04-30T09:00:05.950Z,28.6
2019-04-30T09:01:05.965Z,26.9
2019-04-30T09:02:13.462Z,28.299999
2019-04-30T09:03:06.087Z,27.9
2019-04-30T09:04:07.652Z,27.299999
2019-04-30T09:05:06.214Z,28.4
2019-04-30T09:12:05.483Z,28.200001
2019-04-30T09:13:05.579Z,29.6
2019-04-30T09:14:05.711Z,28.4
2019-04-30T09:15:05.722Z,28.4
2019-04-30T09:31:08.707Z,24.799999
2019-04-30T09:34:15.017Z,24.200001
2019-04-30T09:39:08.902Z,26.1
2019-04-30T09:40:16.000Z,27.6
2019-04-30T09:41:09.269Z,28
2019-04-30T09:42:09.127Z,27.700001
2019-04-30T09:43:08.638Z,26.799999
2019-04-30T09:44:07.177Z,26.1
2019-04-30T09:45:08.752Z,26.299999
2019-04-30T09:46:16.169Z,28.200001
2019-04-30T09:47:08.842Z,28.1
2019-04-30T09:48:09.362Z,28.1
2019-04-30T09:49:09.448Z,27.6
2019-04-30T09:50:09.091Z,27.6
2019-04-30T09:51:10.175Z,26.9
2019-04-30T09:52:09.059Z,26.700001
2019-04-30T09:53:09.541Z,26.4
2019-04-30T09:54:11.464Z,26.9
2019-04-30T09:55:09.523Z,28.1
2019-04-30T09:56:09.536Z,28.9
2019-04-30T09:57:08.737Z,27.700001
2019-04-30T09:58:16.813Z,26.9
2019-04-30T09:59:09.137Z,27.299999
2019-04-30T10:00:09.398Z,27.200001
2019-04-30T10:01:09.386Z,27.799999
2019-04-30T10:02:09.257Z,27.1
2019-04-30T10:03:10.259Z,26.6
2019-04-30T10:04:10.180Z,26.9
2019-04-30T10:05:08.445Z,25.6
2019-04-30T10:06:08.896Z,27.1
2019-04-30T10:07:09.635Z,26.799999
2019-04-30T10:08:08.477Z,25.5
2019-04-30T10:09:09.600Z,26.6
2019-04-30T10:10:09.451Z,25.700001
2019-04-30T10:11:09.712Z,24.6
2019-04-30T10:12:09.661Z,24.5
2019-04-30T10:13:08.763Z,24.5
2019-04-30T10:14:08.859Z,24.4
2019-04-30T10:15:09.178Z,23.799999
2019-04-30T10:16:09.712Z,23.200001
2019-04-30T10:17:09.504Z,23.200001
2019-04-30T10:18:09.062Z,23.5
2019-04-30T10:19:10.225Z,22.799999
2019-04-30T10:20:09.198Z,22.299999
2019-04-30T10:21:09.349Z,23.1
2019-04-30T10:22:09.342Z,22.9
2019-04-30T10:23:09.589Z,23.1
2019-04-30T10:24:15.373Z,22.1
2019-04-30T10:25:09.821Z,21.700001
2019-04-30T10:26:09.849Z,20.1
2019-04-30T10:27:12.881Z,19.9
2019-04-30T10:28:10.261Z,20.4
2019-04-30T10:29:10.080Z,21
2019-04-30T10:30:10.059Z,20.5
2019-04-30T10:31:10.093Z,19.799999
2019-04-30T10:32:10.073Z,20.799999
2019-04-30T10:33:10.221Z,21.5
2019-04-30T10:34:10.292Z,22.700001
2019-04-30T10:35:10.258Z,22.9
2019-04-30T10:36:10.406Z,22.1
2019-04-30T10:37:11.496Z,20.9
2019-04-30T10:38:10.622Z,20.700001
2019-04-30T10:39:10.772Z,19.700001
2019-04-30T10:40:10.849Z,19.200001
2019-04-30T10:41:11.018Z,19.9
2019-04-30T10:42:10.990Z,19.799999
2019-04-30T10:43:11.115Z,18.299999
2019-04-30T10:44:11.243Z,17.4
2019-04-30T10:45:11.320Z,16.1
2019-04-30T10:46:11.496Z,16.299999
2019-04-30T10:47:11.475Z,16.4
2019-04-30T10:48:11.601Z,16.799999
2019-04-30T10:49:11.725Z,16.4
2019-04-30T10:50:11.881Z,15.4
2019-04-30T10:51:11.986Z,15.5
2019-04-30T10:52:12.153Z,15.8
2019-04-30T10:53:12.458Z,15.4
2019-04-30T10:54:23.153Z,15
2019-04-30T10:55:13.205Z,14.7
2019-04-30T10:56:12.444Z,14.3
2019-04-30T10:57:12.370Z,14.9
2019-04-30T10:58:12.492Z,16.1
2019-04-30T10:59:12.626Z,16.799999
2019-04-30T11:00:12.721Z,16.700001
2019-04-30T11:01:12.834Z,17.6
2019-04-30T11:02:12.980Z,16.799999
2019-04-30T11:03:19.669Z,17.700001
2019-04-30T11:04:14.205Z,17.4
2019-04-30T11:05:13.346Z,16.700001
2019-04-30T11:06:13.509Z,15.1
2019-04-30T11:07:13.492Z,14.7
2019-04-30T11:08:14.616Z,14.7
2019-04-30T11:13:14.268Z,14.6
2019-04-30T11:14:14.407Z,14.2
2019-04-30T11:15:14.513Z,14.5
2019-04-30T11:16:15.606Z,14.8
2019-04-30T11:17:15.801Z,14.4
2019-04-30T11:18:16.074Z,14.2
2019-04-30T11:19:15.223Z,14.2
2019-04-30T11:20:16.255Z,14.3
2019-04-30T11:21:16.475Z,14.6
2019-04-30T11:22:16.582Z,15
2019-04-30T11:24:16.686Z,13.6
2019-04-30T11:26:17.232Z,13.2
2019-04-30T11:27:16.249Z,12.7
2019-04-30T11:28:17.352Z,12.6
2019-04-30T11:29:16.291Z,13.1
2019-04-30T11:30:21.137Z,13
2019-04-30T11:31:17.367Z,12.6
2019-04-30T11:32:16.612Z,13.9
2019-04-30T11:33:16.534Z,13.9
2019-04-30T11:34:16.527Z,13.4
2019-04-30T11:35:18.358Z,13.1
2019-04-30T11:36:19.314Z,12.4
2019-04-30T11:37:16.872Z,12.3
2019-04-30T11:38:20.219Z,12.6
2019-04-30T11:39:18.573Z,12
2019-04-30T11:40:16.985Z,12.6
2019-04-30T11:41:29.405Z,11.8
2019-04-30T11:42:18.372Z,11.9
2019-04-30T11:43:18.183Z,11.9
2019-04-30T11:44:28.345Z,11.3
2019-04-30T11:45:19.447Z,11.3
2019-04-30T11:46:18.664Z,11.8
2019-04-30T11:47:19.282Z,12.9
2019-04-30T11:48:19.096Z,12.9
2019-04-30T11:49:17.444Z,12.8
2019-04-30T11:50:17.410Z,13.1
2019-04-30T11:51:19.367Z,13.1
2019-04-30T11:52:17.711Z,12.2
2019-04-30T11:53:25.155Z,11.9
2019-04-30T11:54:18.921Z,12
2019-04-30T11:55:19.288Z,11.8
2019-04-30T11:56:18.161Z,12.1
2019-04-30T11:57:18.678Z,12.6
2019-04-30T11:58:21.511Z,11.9
2019-04-30T11:59:19.632Z,11.7
2019-04-30T12:00:18.775Z,11.2
2019-04-30T12:01:19.466Z,11.4
2019-04-30T12:02:19.043Z,11.5
2019-04-30T12:03:19.363Z,10.9
2019-04-30T12:04:19.517Z,11.2
2019-04-30T12:05:20.768Z,10.9
2019-04-30T12:06:19.300Z,11.3
2019-04-30T12:07:19.427Z,10.2
2019-04-30T12:08:19.574Z,10.6
2019-04-30T12:09:20.104Z,11.2
2019-04-30T12:10:19.867Z,11.2
2019-04-30T12:11:20.020Z,11
2019-04-30T12:12:20.154Z,12.5
2019-04-30T12:13:20.309Z,12.3
2019-04-30T12:14:20.463Z,12.7
2019-04-30T12:15:20.643Z,12
2019-04-30T12:16:20.614Z,12.4
2019-04-30T12:17:20.749Z,13.3
2019-04-30T12:18:20.870Z,12.4
2019-04-30T12:19:20.952Z,10.5
2019-04-30T12:20:21.196Z,10.8
2019-04-30T12:21:21.184Z,12.1
2019-04-30T12:22:21.254Z,12.1
2019-04-30T12:23:21.360Z,11.8
2019-04-30T12:24:21.502Z,11.9
2019-04-30T12:25:21.691Z,11.5
2019-04-30T12:26:21.648Z,11.2
2019-04-30T12:27:21.787Z,12.5
2019-04-30T12:28:21.914Z,12.1
2019-04-30T12:29:22.025Z,11.3
2019-04-30T12:30:22.317Z,11.6
2019-04-30T12:31:22.259Z,11.8
2019-04-30T12:32:22.391Z,11.5
2019-04-30T12:33:22.567Z,10.4
2019-04-30T12:34:22.549Z,10.9
2019-04-30T12:35:22.738Z,11.4
2019-04-30T12:36:22.873Z,11.4
2019-04-30T12:37:22.997Z,12
2019-04-30T12:38:22.934Z,11.5
2019-04-30T12:39:23.055Z,11.2
2019-04-30T12:40:28.622Z,11.7
2019-04-30T12:41:24.681Z,11.6
2019-04-30T12:42:23.473Z,12.5
2019-04-30T12:43:23.561Z,12.1
2019-04-30T12:44:23.639Z,12.2
2019-04-30T12:45:23.936Z,12.5
2019-04-30T12:46:23.883Z,12.7
2019-04-30T12:47:23.939Z,12.7
2019-04-30T12:48:24.056Z,12.3
2019-04-30T12:49:24.259Z,11.4
2019-04-30T12:50:24.272Z,12.4
2019-04-30T12:51:24.250Z,12
2019-04-30T12:52:24.373Z,11.8
2019-04-30T12:53:24.501Z,12.2
2019-04-30T12:54:25.057Z,11.3
2019-04-30T12:55:24.817Z,11.1
2019-04-30T12:56:26.945Z,10.9
2019-04-30T12:57:24.889Z,10.8
2019-04-30T12:58:25.015Z,11.4
2019-04-30T12:59:25.191Z,11
2019-04-30T13:00:25.110Z,11
2019-04-30T13:01:25.272Z,10.2
2019-04-30T13:02:25.388Z,10.4
2019-04-30T13:03:25.512Z,10.9
2019-04-30T13:04:25.645Z,11
2019-04-30T13:05:25.754Z,11.4
2019-04-30T13:06:26.394Z,10.2
2019-04-30T13:07:26.500Z,11.2
2019-04-30T13:08:26.530Z,11.4
2019-04-30T13:09:26.578Z,11.4
2019-04-30T13:10:26.695Z,11.6
2019-04-30T13:11:26.866Z,11.8
2019-04-30T13:12:28.038Z,12.5
2019-04-30T13:13:26.863Z,11.7
2019-04-30T13:14:29.924Z,11.8
2019-04-30T13:15:26.855Z,11.9
2019-04-30T13:16:28.817Z,11.8
2019-04-30T13:17:27.004Z,11.9
2019-04-30T13:18:27.034Z,12.1
2019-04-30T13:19:27.018Z,12.3
2019-04-30T13:20:28.995Z,12.4
2019-04-30T13:21:28.439Z,12.2
2019-04-30T13:22:28.933Z,12.9
2019-04-30T13:23:27.361Z,12
2019-04-30T13:24:30.935Z,12
2019-04-30T13:25:34.092Z,11.1
2019-04-30T13:26:28.554Z,11.6
2019-04-30T13:27:27.738Z,12
2019-04-30T13:28:27.866Z,12.8
2019-04-30T13:29:27.998Z,12.6
2019-04-30T13:30:29.808Z,12.5
2019-04-30T13:31:29.397Z,11.6
2019-04-30T13:32:32.165Z,11.4
2019-04-30T13:33:28.819Z,11.6
2019-04-30T13:34:29.877Z,11.7
2019-04-30T13:35:29.070Z,12.2
2019-04-30T13:36:28.643Z,14.3
2019-04-30T13:37:29.096Z,13.5
2019-04-30T13:38:28.864Z,13.6
2019-04-30T13:39:29.252Z,13
2019-04-30T13:40:28.909Z,12
2019-04-30T13:41:29.708Z,12.2
2019-04-30T13:42:29.417Z,13.4
2019-04-30T13:43:29.314Z,13.3
2019-04-30T13:44:29.513Z,13.6